sensor_id;sensor_type;location;lat;lon;timestamp;temperature;humidity
4509;DHT22;2267;48.816;9.230;2022-12-18T00:01:18;-4.10;99.90
4509;DHT22;2267;48.816;9.230;2022-12-18T00:03:46;-4.10;99.90
4509;DHT22;2267;48.816;9.230;2022-12-18T00:06:14;-4.10;99.90
4509;DHT22;2267;48.816;9.230;2022-12-18T00:08:42;-4.10;99.90
4509;DHT22;2267;48.816;9.230;2022-12-18T00:11:16;-4.10;99.90
4509;DHT22;2267;48.816;9.230;2022-12-18T00:13:43;-4.10;99.90
4509;DHT22;2267;48.816;9.230;2022-12-18T00:16:13;-4.10;99.90
4509;DHT22;2267;48.816;9.230;2022-12-18T00:18:41;-4.10;99.90
4509;DHT22;2267;48.816;9.230;2022-12-18T00:21:10;-4.10;99.90
4509;DHT22;2267;48.816;9.230;2022-12-18T00:23:39;-4.10;99.90
4509;DHT22;2267;48.816;9.230;2022-12-18T00:26:11;-4.10;99.90
4509;DHT22;2267;48.816;9.230;2022-12-18T00:28:42;-4.20;99.90
4509;DHT22;2267;48.816;9.230;2022-12-18T00:31:12;-4.20;99.90
4509;DHT22;2267;48.816;9.230;2022-12-18T00:33:39;-4.20;99.90
4509;DHT22;2267;48.816;9.230;2022-12-18T00:36:14;-4.20;99.90
4509;DHT22;2267;48.816;9.230;2022-12-18T00:38:41;-4.20;99.90
4509;DHT22;2267;48.816;9.230;2022-12-18T00:41:09;-4.20;99.90
4509;DHT22;2267;48.816;9.230;2022-12-18T00:43:37;-4.20;99.90
4509;DHT22;2267;48.816;9.230;2022-12-18T00:46:05;-4.20;99.90
4509;DHT22;2267;48.816;9.230;2022-12-18T00:48:32;-4.20;99.90
4509;DHT22;2267;48.816;9.230;2022-12-18T00:50:59;-4.20;99.90
4509;DHT22;2267;48.816;9.230;2022-12-18T00:53:26;-4.20;99.90
4509;DHT22;2267;48.816;9.230;2022-12-18T00:55:52;-4.20;99.90
4509;DHT22;2267;48.816;9.230;2022-12-18T00:58:19;-4.30;99.90
4509;DHT22;2267;48.816;9.230;2022-12-18T01:00:46;-4.30;99.90
4509;DHT22;2267;48.816;9.230;2022-12-18T01:03:14;-4.30;99.90
4509;DHT22;2267;48.816;9.230;2022-12-18T01:05:42;-4.30;99.90
4509;DHT22;2267;48.816;9.230;2022-12-18T01:08:09;-4.30;99.90
4509;DHT22;2267;48.816;9.230;2022-12-18T01:10:35;-4.30;99.90
4509;DHT22;2267;48.816;9.230;2022-12-18T01:13:02;-4.30;99.90
4509;DHT22;2267;48.816;9.230;2022-12-18T01:15:29;-4.40;99.90
4509;DHT22;2267;48.816;9.230;2022-12-18T01:17:56;-4.30;99.90
4509;DHT22;2267;48.816;9.230;2022-12-18T01:20:23;-4.40;99.90
4509;DHT22;2267;48.816;9.230;2022-12-18T01:22:49;-4.40;99.90
4509;DHT22;2267;48.816;9.230;2022-12-18T01:25:16;-4.40;99.90
4509;DHT22;2267;48.816;9.230;2022-12-18T01:27:43;-4.50;99.90
4509;DHT22;2267;48.816;9.230;2022-12-18T01:30:10;-4.50;99.90
4509;DHT22;2267;48.816;9.230;2022-12-18T01:32:37;-4.50;99.90
4509;DHT22;2267;48.816;9.230;2022-12-18T01:35:04;-4.60;99.90
4509;DHT22;2267;48.816;9.230;2022-12-18T01:37:32;-4.60;99.90
4509;DHT22;2267;48.816;9.230;2022-12-18T01:39:58;-4.70;99.90
4509;DHT22;2267;48.816;9.230;2022-12-18T01:42:25;-4.70;99.90
4509;DHT22;2267;48.816;9.230;2022-12-18T01:45:02;-4.80;99.90
4509;DHT22;2267;48.816;9.230;2022-12-18T01:50:03;-4.80;99.90
4509;DHT22;2267;48.816;9.230;2022-12-18T01:52:32;-4.80;99.90
4509;DHT22;2267;48.816;9.230;2022-12-18T01:55:00;-4.80;99.90
4509;DHT22;2267;48.816;9.230;2022-12-18T01:57:28;-4.80;99.90
4509;DHT22;2267;48.816;9.230;2022-12-18T02:00:00;-4.80;99.90
4509;DHT22;2267;48.816;9.230;2022-12-18T02:02:28;-4.90;99.90
4509;DHT22;2267;48.816;9.230;2022-12-18T02:04:56;-5.00;99.90
4509;DHT22;2267;48.816;9.230;2022-12-18T02:07:29;-5.10;99.90
4509;DHT22;2267;48.816;9.230;2022-12-18T02:10:06;-5.10;99.90
4509;DHT22;2267;48.816;9.230;2022-12-18T02:15:36;-5.10;99.90
4509;DHT22;2267;48.816;9.230;2022-12-18T02:18:32;-5.10;99.90
4509;DHT22;2267;48.816;9.230;2022-12-18T02:21:20;-5.10;99.90
4509;DHT22;2267;48.816;9.230;2022-12-18T02:26:36;-5.00;99.90
4509;DHT22;2267;48.816;9.230;2022-12-18T02:29:09;-5.00;99.90
4509;DHT22;2267;48.816;9.230;2022-12-18T02:31:53;-5.00;99.90
4509;DHT22;2267;48.816;9.230;2022-12-18T02:34:24;-5.00;99.90
4509;DHT22;2267;48.816;9.230;2022-12-18T02:36:53;-4.90;99.90
4509;DHT22;2267;48.816;9.230;2022-12-18T02:39:22;-4.90;99.90
4509;DHT22;2267;48.816;9.230;2022-12-18T02:41:50;-4.90;99.90
4509;DHT22;2267;48.816;9.230;2022-12-18T02:44:17;-4.90;99.90
4509;DHT22;2267;48.816;9.230;2022-12-18T02:46:48;-4.90;99.90
4509;DHT22;2267;48.816;9.230;2022-12-18T02:49:44;-4.90;99.90
4509;DHT22;2267;48.816;9.230;2022-12-18T03:03:31;-4.90;99.90
4509;DHT22;2267;48.816;9.230;2022-12-18T03:06:07;-4.90;99.90
4509;DHT22;2267;48.816;9.230;2022-12-18T03:08:42;-4.90;99.90
4509;DHT22;2267;48.816;9.230;2022-12-18T03:11:12;-4.90;99.90
4509;DHT22;2267;48.816;9.230;2022-12-18T03:13:52;-4.80;99.90
4509;DHT22;2267;48.816;9.230;2022-12-18T03:16:25;-4.90;99.90
4509;DHT22;2267;48.816;9.230;2022-12-18T03:19:01;-4.90;99.90
4509;DHT22;2267;48.816;9.230;2022-12-18T03:21:33;-4.90;99.90
4509;DHT22;2267;48.816;9.230;2022-12-18T03:24:06;-4.90;99.90
4509;DHT22;2267;48.816;9.230;2022-12-18T03:26:37;-4.90;99.90
4509;DHT22;2267;48.816;9.230;2022-12-18T03:29:12;-4.80;99.90
4509;DHT22;2267;48.816;9.230;2022-12-18T03:31:43;-4.80;99.90
4509;DHT22;2267;48.816;9.230;2022-12-18T03:34:16;-4.80;99.90
4509;DHT22;2267;48.816;9.230;2022-12-18T03:36:44;-4.80;99.90
4509;DHT22;2267;48.816;9.230;2022-12-18T03:39:11;-4.80;99.90
4509;DHT22;2267;48.816;9.230;2022-12-18T03:44:30;-4.80;99.90
4509;DHT22;2267;48.816;9.230;2022-12-18T03:47:06;-4.80;99.90
4509;DHT22;2267;48.816;9.230;2022-12-18T03:49:46;-4.80;99.90
4509;DHT22;2267;48.816;9.230;2022-12-18T03:52:22;-4.80;99.90
4509;DHT22;2267;48.816;9.230;2022-12-18T03:54:51;-4.80;99.90
4509;DHT22;2267;48.816;9.230;2022-12-18T03:57:21;-4.80;99.90
4509;DHT22;2267;48.816;9.230;2022-12-18T03:59:51;-4.70;99.90
4509;DHT22;2267;48.816;9.230;2022-12-18T04:02:22;-4.70;99.90
4509;DHT22;2267;48.816;9.230;2022-12-18T04:04:53;-4.70;99.90
4509;DHT22;2267;48.816;9.230;2022-12-18T04:07:22;-4.70;99.90
4509;DHT22;2267;48.816;9.230;2022-12-18T04:09:52;-4.70;99.90
4509;DHT22;2267;48.816;9.230;2022-12-18T04:12:20;-4.70;99.90
4509;DHT22;2267;48.816;9.230;2022-12-18T04:14:47;-4.70;99.90
4509;DHT22;2267;48.816;9.230;2022-12-18T04:17:13;-4.70;99.90
4509;DHT22;2267;48.816;9.230;2022-12-18T04:19:40;-4.70;99.90
4509;DHT22;2267;48.816;9.230;2022-12-18T04:22:09;-4.70;99.90
4509;DHT22;2267;48.816;9.230;2022-12-18T04:24:36;-4.80;99.90
4509;DHT22;2267;48.816;9.230;2022-12-18T04:27:04;-4.80;99.90
4509;DHT22;2267;48.816;9.230;2022-12-18T04:29:31;-4.80;99.90
4509;DHT22;2267;48.816;9.230;2022-12-18T04:31:58;-4.80;99.90
4509;DHT22;2267;48.816;9.230;2022-12-18T04:34:25;-4.80;99.90
4509;DHT22;2267;48.816;9.230;2022-12-18T04:36:52;-4.80;99.90
4509;DHT22;2267;48.816;9.230;2022-12-18T04:39:18;-4.90;99.90
4509;DHT22;2267;48.816;9.230;2022-12-18T04:41:45;-4.90;99.90
4509;DHT22;2267;48.816;9.230;2022-12-18T04:44:13;-4.90;99.90
4509;DHT22;2267;48.816;9.230;2022-12-18T04:46:39;-5.00;99.90
4509;DHT22;2267;48.816;9.230;2022-12-18T04:49:06;-4.90;99.90
4509;DHT22;2267;48.816;9.230;2022-12-18T04:51:33;-5.00;99.90
4509;DHT22;2267;48.816;9.230;2022-12-18T04:53:59;-5.10;99.90
4509;DHT22;2267;48.816;9.230;2022-12-18T04:56:26;-5.10;99.90
4509;DHT22;2267;48.816;9.230;2022-12-18T04:58:53;-5.10;99.90
4509;DHT22;2267;48.816;9.230;2022-12-18T05:01:21;-5.10;99.90
4509;DHT22;2267;48.816;9.230;2022-12-18T05:03:47;-5.20;99.90
4509;DHT22;2267;48.816;9.230;2022-12-18T05:06:14;-5.20;99.90
4509;DHT22;2267;48.816;9.230;2022-12-18T05:08:41;-5.20;99.90
4509;DHT22;2267;48.816;9.230;2022-12-18T05:11:11;-5.20;99.90
4509;DHT22;2267;48.816;9.230;2022-12-18T05:13:38;-5.20;99.90
4509;DHT22;2267;48.816;9.230;2022-12-18T05:16:06;-5.30;99.90
4509;DHT22;2267;48.816;9.230;2022-12-18T05:18:33;-5.30;99.90
4509;DHT22;2267;48.816;9.230;2022-12-18T05:21:00;-5.30;99.90
4509;DHT22;2267;48.816;9.230;2022-12-18T05:23:28;-5.30;99.90
4509;DHT22;2267;48.816;9.230;2022-12-18T05:25:57;-5.30;99.90
4509;DHT22;2267;48.816;9.230;2022-12-18T05:28:25;-5.30;99.90
4509;DHT22;2267;48.816;9.230;2022-12-18T05:30:56;-5.40;99.90
4509;DHT22;2267;48.816;9.230;2022-12-18T05:33:25;-5.40;99.90
4509;DHT22;2267;48.816;9.230;2022-12-18T05:35:54;-5.40;99.80
4509;DHT22;2267;48.816;9.230;2022-12-18T05:38:21;-5.40;99.80
4509;DHT22;2267;48.816;9.230;2022-12-18T05:40:50;-5.50;99.70
4509;DHT22;2267;48.816;9.230;2022-12-18T05:43:18;-5.50;99.80
4509;DHT22;2267;48.816;9.230;2022-12-18T05:45:47;-5.50;99.90
4509;DHT22;2267;48.816;9.230;2022-12-18T05:48:15;-5.50;99.90
4509;DHT22;2267;48.816;9.230;2022-12-18T05:50:43;-5.50;99.90
4509;DHT22;2267;48.816;9.230;2022-12-18T05:53:16;-5.50;99.80
4509;DHT22;2267;48.816;9.230;2022-12-18T05:55:44;-5.50;99.80
4509;DHT22;2267;48.816;9.230;2022-12-18T05:58:12;-5.50;99.70
4509;DHT22;2267;48.816;9.230;2022-12-18T06:00:42;-5.50;99.60
4509;DHT22;2267;48.816;9.230;2022-12-18T06:03:10;-5.50;99.60
4509;DHT22;2267;48.816;9.230;2022-12-18T06:05:40;-5.50;99.30
4509;DHT22;2267;48.816;9.230;2022-12-18T06:08:08;-5.60;99.30
4509;DHT22;2267;48.816;9.230;2022-12-18T06:10:35;-5.60;99.30
4509;DHT22;2267;48.816;9.230;2022-12-18T06:13:02;-5.60;99.30
4509;DHT22;2267;48.816;9.230;2022-12-18T06:15:29;-5.60;99.30
4509;DHT22;2267;48.816;9.230;2022-12-18T06:17:55;-5.60;99.30
4509;DHT22;2267;48.816;9.230;2022-12-18T06:20:23;-5.60;99.30
4509;DHT22;2267;48.816;9.230;2022-12-18T06:22:55;-5.60;99.20
4509;DHT22;2267;48.816;9.230;2022-12-18T06:25:22;-5.60;99.10
4509;DHT22;2267;48.816;9.230;2022-12-18T06:27:49;-5.60;99.10
4509;DHT22;2267;48.816;9.230;2022-12-18T06:30:16;-5.70;99.00
4509;DHT22;2267;48.816;9.230;2022-12-18T06:32:42;-5.70;98.90
4509;DHT22;2267;48.816;9.230;2022-12-18T06:35:11;-5.70;99.00
4509;DHT22;2267;48.816;9.230;2022-12-18T06:37:38;-5.70;98.90
4509;DHT22;2267;48.816;9.230;2022-12-18T06:40:05;-5.70;98.90
4509;DHT22;2267;48.816;9.230;2022-12-18T06:42:32;-5.70;98.80
4509;DHT22;2267;48.816;9.230;2022-12-18T06:44:59;-5.70;98.90
4509;DHT22;2267;48.816;9.230;2022-12-18T06:47:25;-5.70;98.80
4509;DHT22;2267;48.816;9.230;2022-12-18T06:49:52;-5.70;98.70
4509;DHT22;2267;48.816;9.230;2022-12-18T06:52:19;-5.70;98.70
4509;DHT22;2267;48.816;9.230;2022-12-18T06:54:46;-5.70;98.70
4509;DHT22;2267;48.816;9.230;2022-12-18T06:57:12;-5.70;98.60
4509;DHT22;2267;48.816;9.230;2022-12-18T06:59:39;-5.80;98.50
4509;DHT22;2267;48.816;9.230;2022-12-18T07:02:06;-5.80;98.40
4509;DHT22;2267;48.816;9.230;2022-12-18T07:04:33;-5.80;98.60
4509;DHT22;2267;48.816;9.230;2022-12-18T07:06:59;-5.80;98.50
4509;DHT22;2267;48.816;9.230;2022-12-18T07:09:26;-5.80;98.40
4509;DHT22;2267;48.816;9.230;2022-12-18T07:11:55;-5.80;98.40
4509;DHT22;2267;48.816;9.230;2022-12-18T07:14:23;-5.80;98.40
4509;DHT22;2267;48.816;9.230;2022-12-18T07:16:50;-5.80;98.40
4509;DHT22;2267;48.816;9.230;2022-12-18T07:19:16;-5.80;98.50
4509;DHT22;2267;48.816;9.230;2022-12-18T07:21:43;-5.80;98.50
4509;DHT22;2267;48.816;9.230;2022-12-18T07:24:10;-5.80;98.50
4509;DHT22;2267;48.816;9.230;2022-12-18T07:26:36;-5.80;98.60
4509;DHT22;2267;48.816;9.230;2022-12-18T07:29:03;-5.80;98.50
4509;DHT22;2267;48.816;9.230;2022-12-18T07:31:30;-5.80;98.40
4509;DHT22;2267;48.816;9.230;2022-12-18T07:33:57;-5.80;98.40
4509;DHT22;2267;48.816;9.230;2022-12-18T07:36:24;-5.90;98.30
4509;DHT22;2267;48.816;9.230;2022-12-18T07:38:51;-5.90;98.40
4509;DHT22;2267;48.816;9.230;2022-12-18T07:41:19;-5.80;98.50
4509;DHT22;2267;48.816;9.230;2022-12-18T07:43:46;-5.80;98.60
4509;DHT22;2267;48.816;9.230;2022-12-18T07:46:14;-5.80;98.60
4509;DHT22;2267;48.816;9.230;2022-12-18T07:48:43;-5.80;98.60
4509;DHT22;2267;48.816;9.230;2022-12-18T07:51:15;-5.80;98.50
4509;DHT22;2267;48.816;9.230;2022-12-18T07:53:42;-5.80;98.60
4509;DHT22;2267;48.816;9.230;2022-12-18T07:56:11;-5.80;98.50
4509;DHT22;2267;48.816;9.230;2022-12-18T07:58:57;-5.80;98.40
4509;DHT22;2267;48.816;9.230;2022-12-18T08:01:24;-5.80;98.50
4509;DHT22;2267;48.816;9.230;2022-12-18T08:03:51;-5.80;98.60
4509;DHT22;2267;48.816;9.230;2022-12-18T08:06:18;-5.70;98.80
4509;DHT22;2267;48.816;9.230;2022-12-18T08:08:53;-5.70;98.70
4509;DHT22;2267;48.816;9.230;2022-12-18T08:11:21;-5.70;98.70
4509;DHT22;2267;48.816;9.230;2022-12-18T08:13:48;-5.70;98.70
4509;DHT22;2267;48.816;9.230;2022-12-18T08:16:15;-5.70;98.70
4509;DHT22;2267;48.816;9.230;2022-12-18T08:18:42;-5.70;98.70
4509;DHT22;2267;48.816;9.230;2022-12-18T08:21:11;-5.60;98.90
4509;DHT22;2267;48.816;9.230;2022-12-18T08:23:39;-5.60;98.80
4509;DHT22;2267;48.816;9.230;2022-12-18T08:26:13;-5.60;98.90
4509;DHT22;2267;48.816;9.230;2022-12-18T08:28:40;-5.60;99.00
4509;DHT22;2267;48.816;9.230;2022-12-18T08:31:07;-5.50;99.10
4509;DHT22;2267;48.816;9.230;2022-12-18T08:33:36;-5.50;99.10
4509;DHT22;2267;48.816;9.230;2022-12-18T08:36:05;-5.50;99.10
4509;DHT22;2267;48.816;9.230;2022-12-18T08:38:33;-5.40;99.10
4509;DHT22;2267;48.816;9.230;2022-12-18T08:43:27;-5.30;99.00
4509;DHT22;2267;48.816;9.230;2022-12-18T08:46:13;-5.40;99.00
4509;DHT22;2267;48.816;9.230;2022-12-18T08:48:42;-5.30;99.00
4509;DHT22;2267;48.816;9.230;2022-12-18T08:51:10;-5.30;98.90
4509;DHT22;2267;48.816;9.230;2022-12-18T08:53:37;-5.30;99.00
4509;DHT22;2267;48.816;9.230;2022-12-18T08:56:05;-5.20;99.00
4509;DHT22;2267;48.816;9.230;2022-12-18T08:58:32;-5.10;99.00
4509;DHT22;2267;48.816;9.230;2022-12-18T09:01:06;-5.10;99.10
4509;DHT22;2267;48.816;9.230;2022-12-18T09:03:33;-5.00;99.10
4509;DHT22;2267;48.816;9.230;2022-12-18T09:06:01;-4.90;99.00
4509;DHT22;2267;48.816;9.230;2022-12-18T09:08:28;-4.70;99.20
4509;DHT22;2267;48.816;9.230;2022-12-18T09:10:54;-4.60;99.00
4509;DHT22;2267;48.816;9.230;2022-12-18T09:13:22;-4.40;99.00
4509;DHT22;2267;48.816;9.230;2022-12-18T09:15:51;-4.10;99.40
4509;DHT22;2267;48.816;9.230;2022-12-18T09:18:20;-3.80;98.90
4509;DHT22;2267;48.816;9.230;2022-12-18T09:20:47;-3.50;98.60
4509;DHT22;2267;48.816;9.230;2022-12-18T09:23:14;-3.30;98.20
4509;DHT22;2267;48.816;9.230;2022-12-18T09:25:41;-3.10;98.00
4509;DHT22;2267;48.816;9.230;2022-12-18T09:28:18;-2.90;97.70
4509;DHT22;2267;48.816;9.230;2022-12-18T09:30:47;-2.80;97.40
4509;DHT22;2267;48.816;9.230;2022-12-18T09:33:16;-2.70;97.20
4509;DHT22;2267;48.816;9.230;2022-12-18T09:35:44;-2.60;97.10
4509;DHT22;2267;48.816;9.230;2022-12-18T09:38:15;-2.50;97.20
4509;DHT22;2267;48.816;9.230;2022-12-18T09:40:47;-2.30;97.20
4509;DHT22;2267;48.816;9.230;2022-12-18T09:43:28;-2.20;96.90
4509;DHT22;2267;48.816;9.230;2022-12-18T09:46:02;-2.10;96.80
4509;DHT22;2267;48.816;9.230;2022-12-18T09:48:35;-2.10;96.90
4509;DHT22;2267;48.816;9.230;2022-12-18T09:51:09;-1.90;96.80
4509;DHT22;2267;48.816;9.230;2022-12-18T09:53:41;-1.70;96.70
4509;DHT22;2267;48.816;9.230;2022-12-18T09:56:16;-1.60;96.40
4509;DHT22;2267;48.816;9.230;2022-12-18T10:01:22;-1.40;96.20
4509;DHT22;2267;48.816;9.230;2022-12-18T10:03:50;-1.30;96.10
4509;DHT22;2267;48.816;9.230;2022-12-18T10:06:32;-1.30;96.10
4509;DHT22;2267;48.816;9.230;2022-12-18T10:20:02;-0.30;95.50
4509;DHT22;2267;48.816;9.230;2022-12-18T10:27:41;0.20;95.80
4509;DHT22;2267;48.816;9.230;2022-12-18T10:30:16;0.30;95.40
4509;DHT22;2267;48.816;9.230;2022-12-18T10:32:43;0.30;95.30
4509;DHT22;2267;48.816;9.230;2022-12-18T10:35:30;0.10;95.20
4509;DHT22;2267;48.816;9.230;2022-12-18T10:43:20;0.00;95.60
4509;DHT22;2267;48.816;9.230;2022-12-18T10:48:39;0.00;95.90
4509;DHT22;2267;48.816;9.230;2022-12-18T10:51:08;-0.10;95.80
4509;DHT22;2267;48.816;9.230;2022-12-18T10:53:40;-0.30;95.80
4509;DHT22;2267;48.816;9.230;2022-12-18T10:56:08;-0.50;96.00
4509;DHT22;2267;48.816;9.230;2022-12-18T10:58:37;-0.60;96.30
4509;DHT22;2267;48.816;9.230;2022-12-18T11:01:17;-0.70;96.40
4509;DHT22;2267;48.816;9.230;2022-12-18T11:04:00;-0.90;96.60
4509;DHT22;2267;48.816;9.230;2022-12-18T11:06:29;-0.90;97.00
4509;DHT22;2267;48.816;9.230;2022-12-18T11:09:05;-0.90;97.10
4509;DHT22;2267;48.816;9.230;2022-12-18T11:11:40;-1.00;97.20
4509;DHT22;2267;48.816;9.230;2022-12-18T11:14:19;-1.10;97.30
4509;DHT22;2267;48.816;9.230;2022-12-18T11:16:48;-1.10;97.60
4509;DHT22;2267;48.816;9.230;2022-12-18T11:19:37;-1.10;97.80
4509;DHT22;2267;48.816;9.230;2022-12-18T11:22:28;-1.20;97.80
4509;DHT22;2267;48.816;9.230;2022-12-18T11:25:04;-1.30;97.70
4509;DHT22;2267;48.816;9.230;2022-12-18T11:27:57;-1.30;97.90
4509;DHT22;2267;48.816;9.230;2022-12-18T11:30:36;-1.30;98.00
4509;DHT22;2267;48.816;9.230;2022-12-18T11:33:11;-1.30;98.10
4509;DHT22;2267;48.816;9.230;2022-12-18T11:35:55;-1.30;98.30
4509;DHT22;2267;48.816;9.230;2022-12-18T11:38:42;-1.30;98.30
4509;DHT22;2267;48.816;9.230;2022-12-18T11:41:27;-1.30;98.40
4509;DHT22;2267;48.816;9.230;2022-12-18T11:44:24;-1.40;98.40
4509;DHT22;2267;48.816;9.230;2022-12-18T11:47:00;-1.30;98.50
4509;DHT22;2267;48.816;9.230;2022-12-18T11:49:33;-1.20;98.60
4509;DHT22;2267;48.816;9.230;2022-12-18T11:54:39;-1.10;98.80
4509;DHT22;2267;48.816;9.230;2022-12-18T12:11:11;-0.40;98.30
4509;DHT22;2267;48.816;9.230;2022-12-18T12:16:52;-0.20;98.00
4509;DHT22;2267;48.816;9.230;2022-12-18T12:22:28;-0.10;97.90
4509;DHT22;2267;48.816;9.230;2022-12-18T12:28:11;0.10;97.70
4509;DHT22;2267;48.816;9.230;2022-12-18T12:30:39;0.20;97.70
4509;DHT22;2267;48.816;9.230;2022-12-18T12:39:07;0.40;97.40
4509;DHT22;2267;48.816;9.230;2022-12-18T12:41:37;0.40;97.50
4509;DHT22;2267;48.816;9.230;2022-12-18T12:44:30;0.40;97.40
4509;DHT22;2267;48.816;9.230;2022-12-18T12:47:04;0.50;97.50
4509;DHT22;2267;48.816;9.230;2022-12-18T12:49:33;0.50;97.50
4509;DHT22;2267;48.816;9.230;2022-12-18T12:52:12;0.50;97.50
4509;DHT22;2267;48.816;9.230;2022-12-18T12:54:41;0.60;97.50
4509;DHT22;2267;48.816;9.230;2022-12-18T13:00:18;0.70;97.40
4509;DHT22;2267;48.816;9.230;2022-12-18T13:08:10;0.90;97.60
4509;DHT22;2267;48.816;9.230;2022-12-18T13:10:41;0.90;97.50
4509;DHT22;2267;48.816;9.230;2022-12-18T13:13:16;1.00;97.60
4509;DHT22;2267;48.816;9.230;2022-12-18T13:16:06;1.10;97.50
4509;DHT22;2267;48.816;9.230;2022-12-18T13:18:34;1.10;97.40
4509;DHT22;2267;48.816;9.230;2022-12-18T13:21:08;1.10;97.30
4509;DHT22;2267;48.816;9.230;2022-12-18T13:23:37;1.20;97.40
4509;DHT22;2267;48.816;9.230;2022-12-18T13:31:13;1.30;97.30
4509;DHT22;2267;48.816;9.230;2022-12-18T13:36:32;1.30;97.30
4509;DHT22;2267;48.816;9.230;2022-12-18T13:39:26;1.30;97.30
4509;DHT22;2267;48.816;9.230;2022-12-18T13:44:36;1.40;97.30
4509;DHT22;2267;48.816;9.230;2022-12-18T13:49:56;1.40;97.40
4509;DHT22;2267;48.816;9.230;2022-12-18T13:52:28;1.40;97.30
4509;DHT22;2267;48.816;9.230;2022-12-18T13:55:02;1.40;97.30
4509;DHT22;2267;48.816;9.230;2022-12-18T13:57:33;1.40;97.40
4509;DHT22;2267;48.816;9.230;2022-12-18T14:02:50;1.30;97.30
4509;DHT22;2267;48.816;9.230;2022-12-18T14:05:31;1.30;97.40
4509;DHT22;2267;48.816;9.230;2022-12-18T14:08:14;1.30;97.40
4509;DHT22;2267;48.816;9.230;2022-12-18T14:10:48;1.20;97.50
4509;DHT22;2267;48.816;9.230;2022-12-18T14:15:48;1.10;97.70
4509;DHT22;2267;48.816;9.230;2022-12-18T14:20:51;1.00;98.00
4509;DHT22;2267;48.816;9.230;2022-12-18T14:23:45;0.90;98.00
4509;DHT22;2267;48.816;9.230;2022-12-18T14:26:27;0.90;98.10
4509;DHT22;2267;48.816;9.230;2022-12-18T14:28:56;0.80;98.20
4509;DHT22;2267;48.816;9.230;2022-12-18T14:31:30;0.80;98.30
4509;DHT22;2267;48.816;9.230;2022-12-18T14:33:58;0.70;98.40
4509;DHT22;2267;48.816;9.230;2022-12-18T14:36:27;0.60;98.50
4509;DHT22;2267;48.816;9.230;2022-12-18T14:38:55;0.60;98.60
4509;DHT22;2267;48.816;9.230;2022-12-18T14:41:23;0.50;98.70
4509;DHT22;2267;48.816;9.230;2022-12-18T14:43:52;0.50;98.90
4509;DHT22;2267;48.816;9.230;2022-12-18T14:49:04;0.40;99.00
4509;DHT22;2267;48.816;9.230;2022-12-18T14:51:33;0.40;99.10
4509;DHT22;2267;48.816;9.230;2022-12-18T14:54:15;0.30;99.10
4509;DHT22;2267;48.816;9.230;2022-12-18T14:56:48;1.10;99.90
4509;DHT22;2267;48.816;9.230;2022-12-18T14:59:20;1.20;99.90
4509;DHT22;2267;48.816;9.230;2022-12-18T15:02:23;1.50;99.90
4509;DHT22;2267;48.816;9.230;2022-12-18T15:05:18;1.70;99.90
4509;DHT22;2267;48.816;9.230;2022-12-18T15:07:50;1.60;99.90
4509;DHT22;2267;48.816;9.230;2022-12-18T15:10:19;1.50;99.90
4509;DHT22;2267;48.816;9.230;2022-12-18T15:15:48;1.20;99.90
4509;DHT22;2267;48.816;9.230;2022-12-18T15:18:18;1.00;99.90
4509;DHT22;2267;48.816;9.230;2022-12-18T15:20:58;0.90;99.90
4509;DHT22;2267;48.816;9.230;2022-12-18T15:24:13;0.80;99.90
4509;DHT22;2267;48.816;9.230;2022-12-18T15:26:19;0.70;99.90
4509;DHT22;2267;48.816;9.230;2022-12-18T15:28:51;0.60;99.90
4509;DHT22;2267;48.816;9.230;2022-12-18T15:31:34;0.50;99.90
4509;DHT22;2267;48.816;9.230;2022-12-18T15:36:34;0.40;99.90
4509;DHT22;2267;48.816;9.230;2022-12-18T15:39:05;0.30;99.90
4509;DHT22;2267;48.816;9.230;2022-12-18T15:41:33;0.20;99.90
4509;DHT22;2267;48.816;9.230;2022-12-18T15:44:02;0.20;99.90
4509;DHT22;2267;48.816;9.230;2022-12-18T15:46:30;0.10;99.90
4509;DHT22;2267;48.816;9.230;2022-12-18T15:48:57;0.10;99.90
4509;DHT22;2267;48.816;9.230;2022-12-18T15:51:32;0.00;99.90
4509;DHT22;2267;48.816;9.230;2022-12-18T15:54:01;0.00;99.90
4509;DHT22;2267;48.816;9.230;2022-12-18T15:56:30;-0.10;99.90
4509;DHT22;2267;48.816;9.230;2022-12-18T15:59:17;-0.10;99.90
4509;DHT22;2267;48.816;9.230;2022-12-18T16:01:47;-0.20;99.90
4509;DHT22;2267;48.816;9.230;2022-12-18T16:04:17;-0.20;99.90
4509;DHT22;2267;48.816;9.230;2022-12-18T16:06:44;-0.20;99.90
4509;DHT22;2267;48.816;9.230;2022-12-18T16:09:31;-0.20;99.90
4509;DHT22;2267;48.816;9.230;2022-12-18T16:12:01;-0.30;99.90
4509;DHT22;2267;48.816;9.230;2022-12-18T16:14:29;-0.30;99.90
4509;DHT22;2267;48.816;9.230;2022-12-18T16:16:59;-0.40;99.90
4509;DHT22;2267;48.816;9.230;2022-12-18T16:19:27;-0.40;99.90
4509;DHT22;2267;48.816;9.230;2022-12-18T16:21:56;-0.40;99.90
4509;DHT22;2267;48.816;9.230;2022-12-18T16:24:29;-0.50;99.90
4509;DHT22;2267;48.816;9.230;2022-12-18T16:26:58;-0.50;99.90
4509;DHT22;2267;48.816;9.230;2022-12-18T16:29:27;-0.50;99.90
4509;DHT22;2267;48.816;9.230;2022-12-18T16:31:55;-0.50;99.90
4509;DHT22;2267;48.816;9.230;2022-12-18T16:34:24;-0.50;99.90
4509;DHT22;2267;48.816;9.230;2022-12-18T16:37:00;-0.60;99.90
4509;DHT22;2267;48.816;9.230;2022-12-18T16:39:35;-0.60;99.90
4509;DHT22;2267;48.816;9.230;2022-12-18T16:42:09;-0.60;99.90
4509;DHT22;2267;48.816;9.230;2022-12-18T16:44:36;-0.60;99.90
4509;DHT22;2267;48.816;9.230;2022-12-18T16:47:03;-0.60;99.90
4509;DHT22;2267;48.816;9.230;2022-12-18T16:49:32;-0.60;99.90
4509;DHT22;2267;48.816;9.230;2022-12-18T16:51:58;-0.60;99.90
4509;DHT22;2267;48.816;9.230;2022-12-18T16:54:28;-0.70;99.90
4509;DHT22;2267;48.816;9.230;2022-12-18T16:56:56;-0.60;99.90
4509;DHT22;2267;48.816;9.230;2022-12-18T16:59:23;-0.70;99.90
4509;DHT22;2267;48.816;9.230;2022-12-18T17:01:52;-0.70;99.90
4509;DHT22;2267;48.816;9.230;2022-12-18T17:04:19;-0.60;99.90
4509;DHT22;2267;48.816;9.230;2022-12-18T17:06:46;-0.70;99.90
4509;DHT22;2267;48.816;9.230;2022-12-18T17:09:18;-0.60;99.90
4509;DHT22;2267;48.816;9.230;2022-12-18T17:11:52;-0.70;99.90
4509;DHT22;2267;48.816;9.230;2022-12-18T17:14:22;-0.70;99.90
4509;DHT22;2267;48.816;9.230;2022-12-18T17:16:49;-0.70;99.90
4509;DHT22;2267;48.816;9.230;2022-12-18T17:19:33;-0.70;99.90
4509;DHT22;2267;48.816;9.230;2022-12-18T17:22:00;-0.70;99.90
4509;DHT22;2267;48.816;9.230;2022-12-18T17:24:27;-0.70;99.90
4509;DHT22;2267;48.816;9.230;2022-12-18T17:27:00;-0.70;99.90
4509;DHT22;2267;48.816;9.230;2022-12-18T17:29:27;-0.70;99.90
4509;DHT22;2267;48.816;9.230;2022-12-18T17:31:54;-0.80;99.90
4509;DHT22;2267;48.816;9.230;2022-12-18T17:34:23;-0.80;99.90
4509;DHT22;2267;48.816;9.230;2022-12-18T17:36:50;-0.80;99.90
4509;DHT22;2267;48.816;9.230;2022-12-18T17:39:18;-0.70;99.90
4509;DHT22;2267;48.816;9.230;2022-12-18T17:41:46;-0.70;99.90
4509;DHT22;2267;48.816;9.230;2022-12-18T17:44:17;-0.70;99.90
4509;DHT22;2267;48.816;9.230;2022-12-18T17:46:44;-0.80;99.90
4509;DHT22;2267;48.816;9.230;2022-12-18T17:49:12;-0.80;99.90
4509;DHT22;2267;48.816;9.230;2022-12-18T17:51:39;-0.80;99.90
4509;DHT22;2267;48.816;9.230;2022-12-18T17:54:09;-0.80;99.90
4509;DHT22;2267;48.816;9.230;2022-12-18T17:56:37;-0.80;99.90
4509;DHT22;2267;48.816;9.230;2022-12-18T17:59:05;-0.80;99.90
4509;DHT22;2267;48.816;9.230;2022-12-18T18:01:33;-0.80;99.90
4509;DHT22;2267;48.816;9.230;2022-12-18T18:04:06;-0.80;99.90
4509;DHT22;2267;48.816;9.230;2022-12-18T18:06:33;-0.80;99.90
4509;DHT22;2267;48.816;9.230;2022-12-18T18:09:04;-0.80;99.90
4509;DHT22;2267;48.816;9.230;2022-12-18T18:11:33;-0.80;99.90
4509;DHT22;2267;48.816;9.230;2022-12-18T18:14:21;-0.80;99.90
4509;DHT22;2267;48.816;9.230;2022-12-18T18:16:50;-0.70;99.90
4509;DHT22;2267;48.816;9.230;2022-12-18T18:19:20;-0.70;99.90
4509;DHT22;2267;48.816;9.230;2022-12-18T18:21:50;-0.80;99.90
4509;DHT22;2267;48.816;9.230;2022-12-18T18:24:20;-0.70;99.90
4509;DHT22;2267;48.816;9.230;2022-12-18T18:26:49;-0.70;99.90
4509;DHT22;2267;48.816;9.230;2022-12-18T18:29:19;-0.70;99.90